createdAt,value
2018-02-08T00:01:03.026Z,0.40
2018-02-08T00:03:30.826Z,0.40
2018-02-08T00:05:58.385Z,0.40
2018-02-08T00:08:25.766Z,0.40
2018-02-08T00:10:53.285Z,0.40
2018-02-08T00:13:20.767Z,0.40
2018-02-08T00:15:48.065Z,0.40
2018-02-08T00:18:15.645Z,0.30
2018-02-08T00:20:43.805Z,0.30
2018-02-08T00:23:11.226Z,0.30
2018-02-08T00:25:38.966Z,0.30
2018-02-08T00:28:06.406Z,0.30
2018-02-08T00:30:33.887Z,0.30
2018-02-08T00:33:02.047Z,0.30
2018-02-08T00:35:29.787Z,0.30
2018-02-08T00:37:57.386Z,0.20
2018-02-08T00:40:25.569Z,0.00
2018-02-08T00:42:53.368Z,0.00
2018-02-08T00:45:20.705Z,0.00
2018-02-08T00:47:48.129Z,-0.20
2018-02-08T00:50:15.627Z,-0.20
2018-02-08T00:52:43.346Z,-0.10
2018-02-08T00:55:10.686Z,-0.10
2018-02-08T00:57:38.186Z,0.00
2018-02-08T01:00:05.606Z,0.10
2018-02-08T01:02:33.251Z,0.10
2018-02-08T01:05:01.091Z,0.00
2018-02-08T01:07:28.451Z,-0.10
2018-02-08T01:09:55.790Z,-0.20
2018-02-08T01:12:23.191Z,-0.20
2018-02-08T01:14:51.251Z,-0.20
2018-02-08T01:17:18.878Z,-0.20
2018-02-08T01:19:48.927Z,-0.30
2018-02-08T01:22:16.327Z,-0.30
2018-02-08T01:24:43.667Z,-0.20
2018-02-08T01:27:11.008Z,-0.10
2018-02-08T01:29:38.528Z,-0.10
2018-02-08T01:32:06.368Z,-0.10
2018-02-08T01:34:33.887Z,-0.10
2018-02-08T01:37:01.647Z,-0.20
2018-02-08T01:39:29.307Z,-0.20
2018-02-08T01:41:56.807Z,-0.20
2018-02-08T01:44:24.466Z,-0.20
2018-02-08T01:46:51.949Z,-0.20
2018-02-08T01:49:25.666Z,-0.30
2018-02-08T01:51:53.348Z,-0.40
2018-02-08T01:54:20.790Z,-0.40
2018-02-08T01:56:48.107Z,-0.50
2018-02-08T01:59:15.487Z,-0.50
2018-02-08T02:01:42.806Z,-0.50
2018-02-08T02:04:10.146Z,-0.60
2018-02-08T02:06:37.605Z,-0.80
2018-02-08T02:09:06.391Z,-0.70
2018-02-08T02:11:33.786Z,-0.70
2018-02-08T02:14:01.127Z,-0.70
2018-02-08T02:16:28.766Z,-0.70
2018-02-08T02:18:56.146Z,-0.70
2018-02-08T02:21:23.447Z,-0.80
2018-02-08T02:23:51.267Z,-0.60
2018-02-08T02:26:18.647Z,-0.50
2018-02-08T02:28:46.746Z,-0.30
2018-02-08T02:31:14.746Z,-0.30
2018-02-08T02:33:42.166Z,-0.40
2018-02-08T02:36:09.746Z,-0.50
2018-02-08T02:38:37.125Z,-0.50
2018-02-08T02:41:05.569Z,-0.40
2018-02-08T02:43:34.371Z,-0.40
2018-02-08T02:46:02.526Z,-0.40
2018-02-08T02:48:29.988Z,-0.40
2018-02-08T02:50:57.565Z,-0.50
2018-02-08T02:53:25.266Z,-0.60
2018-02-08T02:55:52.546Z,-0.70
2018-02-08T02:58:20.007Z,-0.60
2018-02-08T03:00:48.072Z,-0.80
2018-02-08T03:03:15.491Z,-0.80
2018-02-08T03:05:43.792Z,-0.80
2018-02-08T03:08:12.133Z,-0.80
2018-02-08T03:10:39.612Z,-0.80
2018-02-08T03:13:07.281Z,-0.80
2018-02-08T03:15:34.672Z,-0.80
2018-02-08T03:18:02.252Z,-0.90
2018-02-08T03:20:30.489Z,-0.90
2018-02-08T03:22:57.969Z,-0.90
2018-02-08T03:25:25.349Z,-0.80
2018-02-08T03:27:52.708Z,-0.60
2018-02-08T03:30:30.029Z,-0.60
2018-02-08T03:32:57.353Z,-0.60
2018-02-08T03:35:24.888Z,-0.40
2018-02-08T03:37:52.188Z,-0.40
2018-02-08T03:40:19.628Z,-0.30
2018-02-08T03:42:47.008Z,-0.30
2018-02-08T03:45:14.387Z,-0.40
2018-02-08T03:47:42.048Z,-0.40
2018-02-08T03:50:09.328Z,-0.40
2018-02-08T03:52:37.528Z,-0.40
2018-02-08T03:55:05.629Z,-0.20
2018-02-08T03:57:33.388Z,-0.20
2018-02-08T04:00:00.918Z,-0.10
2018-02-08T04:02:28.446Z,-0.20
2018-02-08T04:04:55.966Z,-0.20
2018-02-08T04:07:24.166Z,-0.10
2018-02-08T04:09:52.366Z,0.00
2018-02-08T04:12:20.766Z,0.00
2018-02-08T04:14:48.226Z,0.00
2018-02-08T04:17:15.485Z,0.10
2018-02-08T04:19:42.807Z,0.10
2018-02-08T04:22:10.526Z,0.20
2018-02-08T04:24:37.845Z,0.30
2018-02-08T04:27:05.248Z,0.30
2018-02-08T04:29:32.766Z,0.30
2018-02-08T04:32:00.007Z,0.20
2018-02-08T04:34:27.726Z,0.20
2018-02-08T04:36:55.006Z,0.20
2018-02-08T04:39:28.565Z,0.20
2018-02-08T04:42:02.527Z,0.30
2018-02-08T04:44:36.086Z,0.30
2018-02-08T04:47:09.085Z,0.30
2018-02-08T04:49:36.606Z,0.40
2018-02-08T04:52:04.125Z,0.40
2018-02-08T04:54:31.526Z,0.40
2018-02-08T04:56:59.006Z,0.40
2018-02-08T04:59:26.364Z,0.40
2018-02-08T05:01:54.415Z,0.40
2018-02-08T05:04:21.792Z,0.40
2018-02-08T05:06:49.153Z,0.40
2018-02-08T05:09:16.572Z,0.40
2018-02-08T05:11:44.293Z,0.40
2018-02-08T05:14:11.773Z,0.50
2018-02-08T05:16:39.131Z,0.50
2018-02-08T05:19:06.997Z,0.50
2018-02-08T05:21:34.260Z,0.50
2018-02-08T05:24:01.731Z,0.50
2018-02-08T05:26:29.129Z,0.50
2018-02-08T05:28:56.609Z,0.50
2018-02-08T05:31:23.969Z,0.50
2018-02-08T05:33:52.030Z,0.50
2018-02-08T05:36:19.470Z,0.50
2018-02-08T05:38:46.864Z,0.50
2018-02-08T05:41:14.011Z,0.50
2018-02-08T05:43:41.446Z,0.50
2018-02-08T05:46:08.806Z,0.50
2018-02-08T05:48:36.126Z,0.50
2018-02-08T05:51:03.426Z,0.50
2018-02-08T05:53:31.726Z,0.60
2018-02-08T05:55:59.246Z,0.50
2018-02-08T05:58:26.566Z,0.60
2018-02-08T06:00:53.985Z,0.60
2018-02-08T06:03:22.166Z,0.60
2018-02-08T06:05:49.805Z,0.60
2018-02-08T06:08:17.267Z,0.60
2018-02-08T06:10:44.928Z,0.60
2018-02-08T06:13:13.627Z,0.60
2018-02-08T06:15:41.088Z,0.60
2018-02-08T06:18:15.608Z,0.60
2018-02-08T06:20:43.306Z,0.50
2018-02-08T06:23:10.847Z,0.60
2018-02-08T06:25:38.207Z,0.60
2018-02-08T06:28:05.766Z,0.60
2018-02-08T06:30:33.903Z,0.60
2018-02-08T06:33:01.285Z,0.60
2018-02-08T06:35:28.746Z,0.60
2018-02-08T06:37:56.546Z,0.60
2018-02-08T06:40:23.825Z,0.60
2018-02-08T06:42:51.165Z,0.60
2018-02-08T06:45:18.585Z,0.60
2018-02-08T06:47:46.125Z,0.60
2018-02-08T06:50:13.626Z,0.60
2018-02-08T06:52:41.426Z,0.60
2018-02-08T06:55:08.725Z,0.70
2018-02-08T06:57:36.345Z,0.70
2018-02-08T07:00:03.644Z,0.70
2018-02-08T07:02:31.327Z,0.80
2018-02-08T07:04:58.755Z,0.90
2018-02-08T07:07:26.306Z,0.90
2018-02-08T07:09:53.606Z,0.90
2018-02-08T07:12:21.067Z,1.00
2018-02-08T07:14:48.446Z,1.10
2018-02-08T07:17:16.492Z,1.30
2018-02-08T07:19:43.754Z,1.30
2018-02-08T07:22:11.364Z,1.40
2018-02-08T07:24:38.905Z,1.50
2018-02-08T07:27:06.525Z,1.60
2018-02-08T07:29:33.785Z,1.60
2018-02-08T07:32:01.465Z,1.70
2018-02-08T07:34:28.806Z,1.70
2018-02-08T07:36:56.665Z,1.80
2018-02-08T07:39:24.324Z,1.80
2018-02-08T07:41:52.005Z,1.80
2018-02-08T07:44:19.410Z,1.90
2018-02-08T07:46:47.607Z,1.90
2018-02-08T07:49:15.063Z,1.90
2018-02-08T07:51:42.526Z,1.90
2018-02-08T07:54:10.227Z,2.00
2018-02-08T07:56:37.565Z,2.00
2018-02-08T07:59:05.685Z,2.00
2018-02-08T08:01:33.627Z,2.00
2018-02-08T08:04:01.010Z,2.10
2018-02-08T08:06:28.367Z,2.10
2018-02-08T08:08:55.729Z,2.20
2018-02-08T08:11:23.130Z,2.20
2018-02-08T08:13:50.689Z,2.20
2018-02-08T08:16:18.991Z,2.30
2018-02-08T08:18:46.970Z,2.30
2018-02-08T08:21:14.350Z,2.40
2018-02-08T08:23:42.690Z,2.40
2018-02-08T08:26:09.931Z,2.40
2018-02-08T08:28:37.230Z,2.50
2018-02-08T08:31:04.870Z,2.50
2018-02-08T08:33:32.170Z,2.60
2018-02-08T08:35:59.490Z,2.60
2018-02-08T08:38:26.951Z,2.70
2018-02-08T08:40:54.690Z,2.70
2018-02-08T08:43:22.250Z,2.80
2018-02-08T08:45:49.731Z,2.80
2018-02-08T08:48:17.048Z,2.90
2018-02-08T08:50:44.348Z,3.00
2018-02-08T08:53:11.708Z,3.00
2018-02-08T08:55:38.988Z,3.10
2018-02-08T08:58:06.528Z,3.20
2018-02-08T09:00:33.908Z,3.20
2018-02-08T09:03:01.366Z,3.20
2018-02-08T09:05:28.926Z,3.30
2018-02-08T09:07:57.088Z,3.40
2018-02-08T09:10:24.387Z,3.30
2018-02-08T09:12:52.387Z,3.40
2018-02-08T09:15:19.668Z,3.50
2018-02-08T09:17:47.107Z,3.50
2018-02-08T09:20:15.969Z,3.60
2018-02-08T09:22:43.267Z,3.60
2018-02-08T09:25:10.646Z,3.70
2018-02-08T09:27:38.147Z,3.70
2018-02-08T09:30:05.546Z,3.70
2018-02-08T09:32:32.969Z,3.70
2018-02-08T09:35:00.427Z,3.70
2018-02-08T09:37:27.847Z,3.70
2018-02-08T09:39:55.246Z,3.70
2018-02-08T09:42:22.967Z,3.60
2018-02-08T09:44:50.386Z,3.60
2018-02-08T09:47:17.706Z,3.50
2018-02-08T09:49:45.127Z,3.50
2018-02-08T09:52:12.587Z,3.50
2018-02-08T09:54:39.969Z,3.40
2018-02-08T09:57:07.328Z,3.40
2018-02-08T09:59:34.969Z,3.40
2018-02-08T10:02:02.407Z,3.30
2018-02-08T10:04:30.167Z,3.30
2018-02-08T10:06:57.507Z,3.20
2018-02-08T10:09:25.406Z,3.20
2018-02-08T10:11:52.788Z,3.10
2018-02-08T10:14:20.286Z,3.10
2018-02-08T10:16:47.646Z,3.00
2018-02-08T10:19:15.286Z,3.10
2018-02-08T10:21:42.925Z,3.10
2018-02-08T10:24:11.106Z,3.10
2018-02-08T10:26:38.446Z,3.10
2018-02-08T10:29:05.867Z,3.00
2018-02-08T10:31:33.549Z,3.00
2018-02-08T10:34:01.067Z,3.10
2018-02-08T10:36:29.227Z,3.10
2018-02-08T10:38:57.586Z,3.00
2018-02-08T10:41:25.346Z,3.00
2018-02-08T10:43:52.668Z,3.00
2018-02-08T10:46:20.153Z,3.10
2018-02-08T10:48:47.550Z,3.10
2018-02-08T10:51:14.852Z,3.10
2018-02-08T10:53:43.011Z,3.10
2018-02-08T10:56:10.671Z,3.20
2018-02-08T10:58:38.051Z,3.20
2018-02-08T11:01:05.507Z,3.20
2018-02-08T11:03:33.406Z,3.20
2018-02-08T11:06:00.745Z,3.20
2018-02-08T11:08:28.127Z,3.30
2018-02-08T11:10:55.506Z,3.20
2018-02-08T11:13:22.845Z,3.10
2018-02-08T11:15:50.685Z,3.00
2018-02-08T11:18:18.066Z,3.00
2018-02-08T11:20:45.565Z,3.20
2018-02-08T11:23:12.945Z,3.40
2018-02-08T11:25:40.324Z,3.40
2018-02-08T11:28:08.331Z,3.50
2018-02-08T11:30:36.107Z,3.50
2018-02-08T11:33:03.895Z,3.50
2018-02-08T11:35:31.487Z,3.40
2018-02-08T11:37:58.885Z,3.40
2018-02-08T11:40:26.526Z,3.40
2018-02-08T11:42:53.826Z,3.40
2018-02-08T11:45:21.252Z,3.50
2018-02-08T11:47:49.286Z,3.50
2018-02-08T11:50:16.826Z,3.50
2018-02-08T11:52:44.126Z,3.40
2018-02-08T11:55:12.413Z,3.50
2018-02-08T11:57:40.126Z,3.50
2018-02-08T12:00:07.505Z,3.50
2018-02-08T12:02:35.165Z,3.50
2018-02-08T12:05:02.525Z,3.40
2018-02-08T12:07:29.885Z,3.40
2018-02-08T12:09:57.185Z,3.40
2018-02-08T12:12:24.804Z,3.40
2018-02-08T12:14:52.346Z,3.40
2018-02-08T12:17:19.665Z,3.40
2018-02-08T12:19:47.767Z,3.30
2018-02-08T12:22:15.206Z,3.30
2018-02-08T12:24:42.545Z,3.30
2018-02-08T12:27:09.847Z,3.30
2018-02-08T12:29:37.911Z,3.30
2018-02-08T12:32:06.469Z,3.30
2018-02-08T12:34:33.886Z,3.30
2018-02-08T12:37:01.666Z,3.30
2018-02-08T12:39:29.246Z,3.30
2018-02-08T12:41:56.506Z,3.30
2018-02-08T12:44:24.225Z,3.30
2018-02-08T12:46:51.664Z,3.30
2018-02-08T12:49:19.005Z,3.30
2018-02-08T12:51:47.091Z,3.30
2018-02-08T12:54:14.531Z,3.30
2018-02-08T12:56:42.130Z,3.30
2018-02-08T12:59:09.731Z,3.30
2018-02-08T13:01:38.126Z,3.30
2018-02-08T13:04:05.447Z,3.30
2018-02-08T13:06:32.827Z,3.30
2018-02-08T13:09:00.249Z,3.30
2018-02-08T13:11:27.568Z,3.20
2018-02-08T13:13:55.169Z,3.20
2018-02-08T13:16:23.328Z,3.20
2018-02-08T13:18:50.768Z,3.20
2018-02-08T13:21:18.288Z,3.20
2018-02-08T13:23:45.686Z,3.30
2018-02-08T13:26:13.379Z,3.30
2018-02-08T13:28:40.887Z,3.30
2018-02-08T13:31:08.326Z,3.30
2018-02-08T13:33:35.870Z,3.30
2018-02-08T13:36:03.186Z,3.30
2018-02-08T13:38:30.606Z,3.20
2018-02-08T13:40:58.752Z,3.00
2018-02-08T13:43:26.087Z,3.00
2018-02-08T13:45:53.788Z,3.00
2018-02-08T13:48:36.107Z,3.00
2018-02-08T13:51:19.348Z,3.00
2018-02-08T13:53:52.287Z,3.00
2018-02-08T13:56:34.847Z,3.00
2018-02-08T13:59:18.928Z,3.10
2018-02-08T14:01:49.166Z,3.10
2018-02-08T14:04:16.667Z,3.10
2018-02-08T14:06:44.867Z,3.20
2018-02-08T14:09:13.247Z,3.10
2018-02-08T14:11:41.231Z,3.10
2018-02-08T14:14:08.713Z,3.10
2018-02-08T14:16:36.207Z,3.10
2018-02-08T14:19:03.827Z,3.10
2018-02-08T14:21:31.489Z,3.10
2018-02-08T14:23:59.188Z,3.10
2018-02-08T14:26:26.527Z,3.10
2018-02-08T14:28:54.348Z,3.10
2018-02-08T14:31:21.887Z,3.10
2018-02-08T14:33:49.367Z,3.00
2018-02-08T14:36:16.925Z,2.90
2018-02-08T14:38:44.306Z,2.90
2018-02-08T14:41:11.647Z,2.90
2018-02-08T14:43:39.246Z,2.90
2018-02-08T14:46:07.041Z,2.90
2018-02-08T14:48:36.731Z,2.80
2018-02-08T14:51:04.187Z,2.80
2018-02-08T14:53:31.494Z,2.80
2018-02-08T14:55:59.054Z,2.80
2018-02-08T14:58:26.534Z,2.70
2018-02-08T15:00:53.930Z,2.70
2018-02-08T15:03:21.552Z,2.70
2018-02-08T15:05:49.090Z,2.60
2018-02-08T15:08:16.395Z,2.60
2018-02-08T15:10:43.852Z,2.60
2018-02-08T15:13:11.828Z,2.60
2018-02-08T15:15:39.214Z,2.60
2018-02-08T15:18:06.532Z,2.60
2018-02-08T15:20:34.649Z,2.60
2018-02-08T15:23:02.070Z,2.60
2018-02-08T15:25:29.569Z,2.70
2018-02-08T15:27:57.729Z,2.70
2018-02-08T15:30:25.509Z,2.60
2018-02-08T15:32:52.829Z,2.70
2018-02-08T15:35:20.608Z,2.70
2018-02-08T15:37:49.270Z,2.70
2018-02-08T15:40:17.409Z,2.70
2018-02-08T15:42:45.049Z,2.70
2018-02-08T15:45:12.491Z,2.70
2018-02-08T15:47:39.809Z,2.60
2018-02-08T15:50:07.969Z,2.60
2018-02-08T15:52:35.390Z,2.60
2018-02-08T15:55:02.627Z,2.60
2018-02-08T15:57:29.989Z,2.50
2018-02-08T15:59:57.349Z,2.50
2018-02-08T16:02:24.768Z,2.50
2018-02-08T16:04:52.168Z,2.50
2018-02-08T16:07:20.032Z,2.40
2018-02-08T16:09:47.310Z,2.50
2018-02-08T16:12:14.848Z,2.50
2018-02-08T16:14:42.211Z,2.50
2018-02-08T16:17:09.630Z,2.40
2018-02-08T16:19:37.139Z,2.50
2018-02-08T16:22:05.752Z,2.50
2018-02-08T16:24:33.152Z,2.50
2018-02-08T16:27:00.550Z,2.50
2018-02-08T16:29:28.350Z,2.50
2018-02-08T16:31:56.011Z,2.60
2018-02-08T16:34:23.452Z,2.50
2018-02-08T16:36:50.876Z,2.40
2018-02-08T16:39:18.254Z,2.30
2018-02-08T16:41:45.716Z,2.30
2018-02-08T16:44:13.094Z,2.20
2018-02-08T16:46:41.133Z,2.20
2018-02-08T16:49:08.654Z,2.20
2018-02-08T16:51:35.993Z,2.20
2018-02-08T16:54:03.392Z,2.20
2018-02-08T16:56:30.771Z,2.10
2018-02-08T16:58:58.129Z,2.10
2018-02-08T17:01:25.729Z,2.10
2018-02-08T17:03:53.250Z,1.70
2018-02-08T17:06:20.570Z,1.40
2018-02-08T17:08:48.010Z,1.00
2018-02-08T17:11:15.360Z,0.80
2018-02-08T17:13:42.772Z,0.90
2018-02-08T17:16:10.230Z,1.10
2018-02-08T17:18:37.610Z,1.30
2018-02-08T17:21:04.910Z,1.40
2018-02-08T17:23:32.670Z,1.40
2018-02-08T17:26:00.000Z,1.50
2018-02-08T17:28:28.130Z,1.60
2018-02-08T17:30:55.689Z,1.50
2018-02-08T17:33:23.070Z,1.50
2018-02-08T17:35:50.430Z,1.40
2018-02-08T17:38:18.550Z,1.20
2018-02-08T17:40:45.909Z,1.20
2018-02-08T17:43:13.390Z,1.20
2018-02-08T17:45:41.090Z,1.10
2018-02-08T17:48:08.580Z,1.00
2018-02-08T17:50:36.449Z,0.80
2018-02-08T17:53:03.729Z,0.70
2018-02-08T17:55:31.170Z,0.80
2018-02-08T17:57:58.609Z,1.00
2018-02-08T18:00:28.194Z,1.10
2018-02-08T18:02:55.969Z,1.10
2018-02-08T18:05:24.128Z,1.10
2018-02-08T18:07:51.610Z,1.00
2018-02-08T18:10:19.508Z,1.00
2018-02-08T18:12:47.026Z,1.10
2018-02-08T18:15:14.369Z,1.10
2018-02-08T18:17:41.729Z,1.20
2018-02-08T18:20:09.187Z,1.00
2018-02-08T18:22:36.490Z,1.00
2018-02-08T18:25:04.092Z,1.10
2018-02-08T18:27:31.411Z,1.20
2018-02-08T18:29:58.730Z,1.30
2018-02-08T18:32:26.231Z,1.30
2018-02-08T18:34:53.811Z,1.30
2018-02-08T18:37:22.077Z,1.40
2018-02-08T18:39:49.431Z,1.30
2018-02-08T18:42:17.118Z,1.40
2018-02-08T18:44:44.372Z,1.30
2018-02-08T18:47:11.692Z,1.30
2018-02-08T18:49:39.494Z,1.30
2018-02-08T18:52:08.300Z,1.40
2018-02-08T18:54:35.811Z,1.40
2018-02-08T18:57:03.331Z,1.40
2018-02-08T18:59:31.310Z,1.40
2018-02-08T19:01:58.869Z,1.50
2018-02-08T19:04:26.488Z,1.50
2018-02-08T19:06:53.829Z,1.50
2018-02-08T19:09:21.269Z,1.60
2018-02-08T19:11:48.590Z,1.60
2018-02-08T19:14:16.127Z,1.70
2018-02-08T19:16:43.488Z,1.70
2018-02-08T19:19:11.008Z,1.70
2018-02-08T19:21:38.469Z,1.70
2018-02-08T19:24:06.049Z,1.70
2018-02-08T19:26:33.479Z,1.80
2018-02-08T19:29:04.819Z,1.70
2018-02-08T19:31:32.416Z,1.80
2018-02-08T19:33:59.828Z,1.80
2018-02-08T19:36:27.128Z,1.90
2018-02-08T19:38:54.693Z,1.80
2018-02-08T19:41:23.006Z,1.90
2018-02-08T19:43:50.276Z,1.90
2018-02-08T19:46:18.468Z,1.90
2018-02-08T19:48:46.377Z,1.90
2018-02-08T19:51:13.912Z,1.90
2018-02-08T19:53:41.224Z,1.90
2018-02-08T19:56:10.791Z,1.90
2018-02-08T19:58:39.726Z,1.90
2018-02-08T20:01:21.611Z,2.00
2018-02-08T20:03:49.522Z,2.00
2018-02-08T20:06:17.206Z,2.00
2018-02-08T20:08:44.528Z,2.00
2018-02-08T20:11:11.789Z,2.00
2018-02-08T20:13:39.175Z,1.90
2018-02-08T20:16:06.491Z,1.90
2018-02-08T20:18:33.790Z,1.90
2018-02-08T20:21:01.692Z,1.90
2018-02-08T20:23:30.286Z,1.80
2018-02-08T20:25:57.979Z,1.80
2018-02-08T20:28:25.410Z,1.80
2018-02-08T20:30:58.955Z,1.70
2018-02-08T20:33:27.151Z,1.70
2018-02-08T20:35:54.675Z,1.60
2018-02-08T20:38:22.059Z,1.70
2018-02-08T20:40:49.448Z,1.60
2018-02-08T20:43:22.614Z,1.70
2018-02-08T20:45:49.909Z,1.70
2018-02-08T20:48:17.568Z,1.80
2018-02-08T20:50:44.986Z,1.80
2018-02-08T20:53:14.469Z,1.80
2018-02-08T20:55:41.912Z,1.70
2018-02-08T20:58:09.211Z,1.80
2018-02-08T21:00:37.134Z,1.70
2018-02-08T21:03:04.928Z,1.70
2018-02-08T21:05:32.349Z,1.70
2018-02-08T21:08:01.095Z,1.70
2018-02-08T21:10:29.405Z,1.70
2018-02-08T21:12:56.822Z,1.70
2018-02-08T21:15:24.387Z,1.80
2018-02-08T21:17:51.848Z,1.80
2018-02-08T21:20:20.107Z,1.80
2018-02-08T21:22:47.448Z,1.80
2018-02-08T21:25:14.852Z,1.80
2018-02-08T21:27:42.177Z,1.80
2018-02-08T21:30:09.792Z,1.80
2018-02-08T21:32:37.811Z,1.80
2018-02-08T21:35:08.197Z,1.80
2018-02-08T21:37:36.770Z,1.70
2018-02-08T21:40:04.108Z,1.80
2018-02-08T21:42:31.468Z,1.80
2018-02-08T21:44:58.846Z,1.80
2018-02-08T21:47:26.216Z,1.80
2018-02-08T21:49:54.846Z,1.80
2018-02-08T21:52:23.176Z,1.80
2018-02-08T21:54:50.734Z,1.80
2018-02-08T21:57:18.348Z,1.80
2018-02-08T21:59:45.747Z,1.80
2018-02-08T22:02:13.091Z,1.70
2018-02-08T22:04:41.168Z,1.70
2018-02-08T22:07:10.207Z,1.70
2018-02-08T22:09:37.868Z,1.80
2018-02-08T22:12:05.247Z,1.80
2018-02-08T22:14:32.772Z,1.80
2018-02-08T22:17:00.130Z,1.90
2018-02-08T22:19:27.507Z,1.90
2018-02-08T22:21:54.954Z,1.90
2018-02-08T22:24:22.369Z,1.90
2018-02-08T22:26:49.628Z,1.80
2018-02-08T22:29:17.286Z,1.60
2018-02-08T22:31:45.010Z,1.20
2018-02-08T22:34:14.287Z,1.00
2018-02-08T22:36:41.590Z,0.90
2018-02-08T22:39:09.090Z,0.70
2018-02-08T22:41:36.489Z,0.50
2018-02-08T22:44:03.770Z,0.60
2018-02-08T22:46:31.226Z,0.60
2018-02-08T22:48:58.567Z,0.60
2018-02-08T22:51:26.749Z,0.60
2018-02-08T22:53:54.852Z,0.70
2018-02-08T22:56:22.212Z,0.60
2018-02-08T22:58:49.690Z,0.80
2018-02-08T23:01:16.927Z,0.80
2018-02-08T23:03:44.289Z,0.80
2018-02-08T23:06:11.697Z,0.60
2018-02-08T23:08:39.209Z,0.50
2018-02-08T23:11:06.646Z,0.50
2018-02-08T23:13:34.370Z,0.60
2018-02-08T23:16:02.108Z,0.70
2018-02-08T23:18:30.047Z,0.70
2018-02-08T23:20:58.986Z,0.70
2018-02-08T23:23:26.694Z,0.70
2018-02-08T23:25:55.056Z,0.70
2018-02-08T23:28:22.536Z,0.70
2018-02-08T23:30:49.982Z,0.80
2018-02-08T23:33:17.736Z,0.80
2018-02-08T23:35:45.116Z,0.80
2018-02-08T23:38:12.437Z,0.70
2018-02-08T23:40:39.696Z,0.50
2018-02-08T23:43:07.653Z,0.50
2018-02-08T23:45:35.013Z,0.60
2018-02-08T23:48:02.333Z,0.60
2018-02-08T23:50:30.053Z,0.40
2018-02-08T23:52:57.833Z,0.30
2018-02-08T23:55:25.093Z,0.00
2018-02-08T23:57:52.333Z,-0.10
